createdAt,value
2018-09-19T00:03:11.773Z,6.55
2018-09-19T00:07:12.460Z,6.56
2018-09-19T00:09:13.136Z,6.95
2018-09-19T00:13:13.853Z,6.68
2018-09-19T00:19:14.644Z,7.05
2018-09-19T00:23:15.399Z,6.93
2018-09-19T00:29:16.198Z,8
2018-09-19T00:33:17.006Z,7.7
2018-09-19T00:35:17.792Z,8.19
2018-09-19T00:39:18.577Z,7.84
2018-09-19T00:45:19.876Z,8.86
2018-09-19T00:49:20.565Z,8.37
2018-09-19T00:55:21.320Z,7.83
2018-09-19T00:59:22.209Z,7.15
2018-09-19T01:01:22.844Z,7.69
2018-09-19T01:05:23.524Z,6.66
2018-09-19T01:11:24.278Z,7.71
2018-09-19T01:15:25.827Z,7.48
2018-09-19T01:21:26.610Z,7.98
2018-09-19T01:25:27.381Z,7.38
2018-09-19T01:27:28.074Z,7.58
2018-09-19T01:31:28.830Z,7.61
2018-09-19T01:37:29.594Z,7.82
2018-09-19T01:41:30.370Z,7.98
2018-09-19T01:47:31.183Z,7.26
2018-09-19T01:51:31.896Z,7.44
2018-09-19T01:53:32.564Z,7.98
2018-09-19T01:57:33.272Z,7.04
2018-09-19T02:03:34.173Z,7.89
2018-09-19T02:07:34.915Z,8.07
2018-09-19T02:13:35.692Z,7.18
2018-09-19T02:17:36.361Z,7.26
2018-09-19T02:19:37.312Z,7.12
2018-09-19T02:23:38.110Z,6.65
2018-09-19T02:29:38.820Z,6.69
2018-09-19T02:33:45.146Z,6.9
2018-09-19T02:39:46.099Z,7.33
2018-09-19T02:43:46.961Z,6.83
2018-09-19T02:45:47.710Z,6.76
2018-09-19T02:49:48.567Z,6.53
2018-09-19T02:55:49.264Z,7.46
2018-09-19T02:59:49.998Z,6.59
2018-09-19T03:05:50.676Z,6.8
2018-09-19T03:09:51.459Z,6.55
2018-09-19T03:11:52.167Z,6.8
2018-09-19T03:15:52.899Z,6.71
2018-09-19T03:21:53.652Z,7.57
2018-09-19T03:25:54.394Z,7.48
2018-09-19T03:31:55.094Z,7.88
2018-09-19T03:35:55.950Z,7.28
2018-09-19T03:37:56.674Z,7.92
2018-09-19T03:41:57.350Z,7.5
2018-09-19T03:47:58.195Z,7.34
2018-09-19T03:51:59.092Z,6.84
2018-09-19T03:57:59.882Z,6.55
2018-09-19T04:02:00.603Z,6.6
2018-09-19T04:04:01.222Z,7.01
2018-09-19T04:08:02.035Z,6.46
2018-09-19T04:14:02.779Z,6.95
2018-09-19T04:18:03.490Z,6.96
2018-09-19T04:24:04.264Z,8.63
2018-09-19T04:28:04.967Z,8.06
2018-09-19T04:30:05.640Z,8.58
2018-09-19T04:34:06.386Z,8.34
2018-09-19T04:40:07.146Z,8.4
2018-09-19T04:44:07.928Z,7.93
2018-09-19T04:50:08.783Z,8.48
2018-09-19T04:54:09.403Z,7.26
2018-09-19T04:56:10.129Z,8.04
2018-09-19T05:00:11.185Z,7.42
2018-09-19T05:06:12.464Z,7.96
2018-09-19T05:10:13.231Z,7.84
2018-09-19T05:16:13.948Z,8.5
2018-09-19T05:20:14.686Z,7.88
2018-09-19T05:22:15.355Z,8.43
2018-09-19T05:26:16.148Z,8.22
2018-09-19T05:32:17.001Z,8.19
2018-09-19T05:36:17.704Z,7.84
2018-09-19T05:46:25.910Z,8.56
2018-09-19T05:46:26.094Z,8.99
2018-09-19T05:48:26.890Z,11.13
2018-09-19T05:52:27.659Z,11.45
2018-09-19T05:58:28.500Z,15.46
2018-09-19T06:02:29.215Z,15.53
2018-09-19T06:08:30.003Z,19.54
2018-09-19T06:12:30.870Z,19.15
2018-09-19T06:14:31.628Z,25
2018-09-19T06:18:32.366Z,23.57
2018-09-19T06:24:33.163Z,18.41
2018-09-19T06:28:33.965Z,17.52
2018-09-19T06:34:34.725Z,14.96
2018-09-19T06:38:35.697Z,14.99
2018-09-19T06:40:36.447Z,21.11
2018-09-19T06:44:37.230Z,20.98
2018-09-19T06:50:38.219Z,15.62
2018-09-19T06:54:39.035Z,15.27
2018-09-19T07:00:39.777Z,16.73
2018-09-19T07:04:40.574Z,15.96
2018-09-19T07:06:41.316Z,16.16
2018-09-19T07:10:42.150Z,16.16
2018-09-19T07:16:42.812Z,17.08
2018-09-19T07:20:43.567Z,17.64
2018-09-19T07:26:44.248Z,15.37
2018-09-19T07:30:44.983Z,14.93
2018-09-19T07:32:45.687Z,14.61
2018-09-19T07:36:46.390Z,14.01
2018-09-19T07:42:47.158Z,14.42
2018-09-19T07:46:47.962Z,14.41
2018-09-19T07:52:48.695Z,14.68
2018-09-19T07:58:49.394Z,12.9
2018-09-19T08:02:50.113Z,12.42
2018-09-19T08:08:50.879Z,12.42
2018-09-19T08:12:51.661Z,11.96
2018-09-19T08:18:52.385Z,12.64
2018-09-19T08:24:53.190Z,14.47
2018-09-19T08:28:53.952Z,13.65
2018-09-19T08:34:54.693Z,13.65
2018-09-19T08:38:55.465Z,13.52
2018-09-19T08:44:56.206Z,12.8
2018-09-19T08:50:56.918Z,11.26
2018-09-19T08:54:57.665Z,10.02
2018-09-19T09:00:58.521Z,9.3
2018-09-19T09:04:59.245Z,8.31
2018-09-19T09:10:59.926Z,8.94
2018-09-19T09:17:00.767Z,9.36
2018-09-19T09:21:01.469Z,8.68
2018-09-19T09:27:02.390Z,8.79
2018-09-19T09:31:02.948Z,8.46
2018-09-19T09:37:03.693Z,7.92
2018-09-19T09:43:04.450Z,9.06
2018-09-19T09:47:05.487Z,8.8
2018-09-19T09:53:06.451Z,10.56
2018-09-19T09:57:07.237Z,9.98
2018-09-19T09:59:07.959Z,9.58
2018-09-19T10:13:01.336Z,8.27
2018-09-19T10:13:01.479Z,9.44
2018-09-19T10:13:01.579Z,9.43
2018-09-19T10:19:02.428Z,8.33
2018-09-19T10:23:03.236Z,7.92
2018-09-19T10:25:03.993Z,8.29
2018-09-19T10:29:04.737Z,8.03
2018-09-19T10:35:05.557Z,7.59
2018-09-19T10:39:06.485Z,7.16
2018-09-19T10:45:07.693Z,8.21
2018-09-19T10:51:08.809Z,8.07
2018-09-19T10:55:09.469Z,7.93
2018-09-19T11:01:10.269Z,7.11
2018-09-19T11:05:10.972Z,7.53
2018-09-19T11:11:11.699Z,8.16
2018-09-19T11:17:12.514Z,6.75
2018-09-19T11:21:13.198Z,6.55
2018-09-19T11:27:13.961Z,7.47
2018-09-19T11:31:14.721Z,7.4
2018-09-19T11:37:15.518Z,7.52
2018-09-19T11:43:16.360Z,7.3
2018-09-19T11:47:17.027Z,6.92
2018-09-19T11:53:18.026Z,6.25
2018-09-19T11:57:18.745Z,6.68
2018-09-19T12:03:19.521Z,6.04
2018-09-19T12:09:20.298Z,6.27
2018-09-19T12:13:21.075Z,6.2
2018-09-19T12:19:21.854Z,6.29
2018-09-19T12:23:22.680Z,5.72
2018-09-19T12:25:23.385Z,6.27
2018-09-19T12:29:26.808Z,6.06
2018-09-19T12:35:27.556Z,5.7
2018-09-19T12:39:28.410Z,5.08
2018-09-19T12:45:29.767Z,5.04
2018-09-19T12:49:30.667Z,5.38
2018-09-19T12:55:31.592Z,4.8
2018-09-19T13:01:32.424Z,5.47
2018-09-19T13:05:33.104Z,5.59
2018-09-19T13:11:33.854Z,4.92
2018-09-19T13:15:34.647Z,4.85
2018-09-19T13:17:35.323Z,5.15
2018-09-19T13:21:36.097Z,5.11
2018-09-19T13:27:36.932Z,5.06
2018-09-19T13:31:37.760Z,5.24
2018-09-19T13:37:38.661Z,5.06
2018-09-19T13:41:39.456Z,4.65
2018-09-19T13:43:40.095Z,4.94
2018-09-19T13:47:40.962Z,4.91
2018-09-19T13:53:41.655Z,5.47
2018-09-19T13:57:42.447Z,5.39
2018-09-19T14:03:43.181Z,4.98
2018-09-19T14:07:44.030Z,5.12
2018-09-19T14:09:44.754Z,5.13
2018-09-19T14:13:45.507Z,4.87
2018-09-19T14:19:46.347Z,5.96
2018-09-19T14:23:47.092Z,6.11
2018-09-19T14:29:47.931Z,6.25
2018-09-19T14:33:48.664Z,6.28
2018-09-19T14:35:49.428Z,6
2018-09-19T14:39:50.269Z,6.11
2018-09-19T14:45:50.992Z,6.69
2018-09-19T14:49:51.789Z,6.89
2018-09-19T14:55:52.436Z,6.95
2018-09-19T15:01:53.251Z,6.83
2018-09-19T15:05:54.028Z,6.91
2018-09-19T15:11:54.829Z,6.96
2018-09-19T15:15:55.563Z,7.25
2018-09-19T15:21:56.305Z,6.87
2018-09-19T15:27:57.047Z,6.82
2018-09-19T15:31:57.796Z,5.98
2018-09-19T15:37:58.461Z,6.95
2018-09-19T15:41:59.358Z,6.44
2018-09-19T15:48:00.147Z,6.92
2018-09-19T15:54:00.881Z,6.67
2018-09-19T15:58:01.633Z,6.67
2018-09-19T16:04:02.939Z,7.95
2018-09-19T16:08:03.684Z,7.91
2018-09-19T16:14:04.425Z,7.69
2018-09-19T16:20:05.129Z,7.48
2018-09-19T16:24:05.905Z,7.57
2018-09-19T16:30:07.068Z,7.45
2018-09-19T16:34:07.780Z,7.65
2018-09-19T16:36:08.566Z,7.74
2018-09-19T16:40:09.314Z,7.99
2018-09-19T16:46:10.017Z,8.3
2018-09-19T16:50:10.775Z,7.77
2018-09-19T16:56:11.564Z,8.15
2018-09-19T17:00:12.607Z,7.75
2018-09-19T17:02:13.301Z,8.96
2018-09-19T17:06:14.073Z,8.3
2018-09-19T17:12:14.878Z,9
2018-09-19T17:16:15.750Z,8.58
2018-09-19T17:22:16.441Z,8.35
2018-09-19T17:26:17.209Z,8.58
2018-09-19T17:28:17.928Z,8.73
2018-09-19T17:32:18.684Z,8.32
2018-09-19T17:38:19.491Z,8.11
2018-09-19T17:42:20.247Z,7.88
2018-09-19T17:48:20.951Z,8.35
2018-09-19T17:52:21.655Z,7.7
2018-09-19T17:54:22.320Z,8.27
2018-09-19T17:58:23.134Z,8.51
2018-09-19T18:04:23.839Z,9.35
2018-09-19T18:08:24.573Z,9.23
2018-09-19T18:14:25.372Z,9.17
2018-09-19T18:18:26.060Z,8.81
2018-09-19T18:20:26.819Z,8.92
2018-09-19T18:24:27.578Z,9.31
2018-09-19T18:30:31.088Z,10.15
2018-09-19T18:34:29.704Z,9.61
2018-09-19T18:40:34.559Z,9.68
2018-09-19T18:46:32.576Z,9.65
2018-09-19T18:50:36.157Z,9.2
2018-09-19T18:56:35.024Z,10.97
2018-09-19T19:00:33.874Z,10.12
2018-09-19T19:06:34.689Z,10.75
2018-09-19T19:12:36.245Z,10.78
2018-09-19T19:16:37.604Z,10.18
2018-09-19T19:22:37.596Z,11.01
2018-09-19T19:26:38.487Z,10.66
2018-09-19T19:32:38.670Z,10.44
2018-09-19T19:38:39.501Z,10.81
2018-09-19T19:42:40.202Z,11.23
2018-09-19T19:48:41.361Z,11.29
2018-09-19T19:52:42.133Z,10.98
2018-09-19T19:58:42.940Z,10.84
2018-09-19T20:04:43.829Z,11.67
2018-09-19T20:08:44.754Z,11.34
2018-09-19T20:14:45.435Z,12.71
2018-09-19T20:18:46.138Z,11.55
2018-09-19T20:24:46.973Z,13.22
2018-09-19T20:34:49.386Z,12.72
2018-09-19T20:34:49.528Z,12.77
2018-09-19T20:40:54.649Z,14.01
2018-09-19T20:44:51.251Z,13.78
2018-09-19T20:46:55.235Z,13.64
2018-09-19T20:50:56.166Z,14.29
2018-09-19T20:56:57.368Z,14.02
2018-09-19T21:00:58.653Z,14.92
2018-09-19T21:06:59.364Z,14.09
2018-09-19T21:11:00.372Z,12.98
2018-09-19T21:13:01.312Z,13.65
2018-09-19T21:16:57.898Z,12.97
2018-09-19T21:22:59.414Z,12.23
2018-09-19T21:26:59.885Z,12.28
2018-09-19T21:33:00.323Z,12.36
2018-09-19T21:37:01.019Z,12.69
2018-09-19T21:39:01.756Z,11.58
2018-09-19T21:43:02.396Z,11.92
2018-09-19T21:49:03.224Z,11.72
2018-09-19T21:53:03.946Z,12.81
2018-09-19T21:59:04.729Z,15.78
2018-09-19T22:03:05.493Z,12.87
2018-09-19T22:05:07.016Z,12.93
2018-09-19T22:09:06.949Z,12.56
2018-09-19T22:15:07.926Z,13.86
2018-09-19T22:19:08.729Z,13.59
2018-09-19T22:25:09.462Z,13.52
2018-09-19T22:29:10.255Z,12.2
2018-09-19T22:31:10.874Z,13.54
2018-09-19T22:35:15.418Z,12.5
2018-09-19T22:41:16.395Z,12.69
2018-09-19T22:45:17.662Z,12.88
2018-09-19T22:51:18.458Z,12.71
2018-09-19T22:55:19.234Z,12.98
2018-09-19T22:57:15.815Z,12.19
2018-09-19T23:01:20.291Z,12.08
2018-09-19T23:07:17.157Z,11.66
2018-09-19T23:11:17.910Z,11.65
2018-09-19T23:17:22.818Z,12.95
2018-09-19T23:23:22.852Z,14.4
2018-09-19T23:27:24.400Z,14.55
2018-09-19T23:33:21.169Z,13.97
2018-09-19T23:37:21.962Z,13.47
2018-09-19T23:43:22.747Z,14.66
2018-09-19T23:49:25.042Z,14.4
2018-09-19T23:53:24.309Z,13.22
2018-09-19T23:59:24.999Z,16.09
